Time;durP1;ratioP1;P1;durP2;ratioP2;P2;SDS_P1;SDS_P2;PMS_P1;PMS_P2;Temp;Humidity;BMP_temperature;BMP_pressure;BME280_temperature;BME280_humidity;BME280_pressure;Samples;Min_cycle;Max_cycle;Signal;HPM_P1;HPM_P2
2021/10/03 00:02:28;;;;;;;5.63;4.40;;;14.10;99.90;;;;;;4877723;29;20478;-70
2021/10/03 00:04:56;;;;;;;4.73;4.33;;;14.10;99.90;;;;;;4877371;29;20869;-70
2021/10/03 00:07:49;;;;;;;5.83;4.63;;;14.10;99.90;;;;;;4877227;29;20487;-69
2021/10/03 00:10:17;;;;;;;5.47;4.87;;;14.00;99.90;;;;;;4876658;29;20511;-70
2021/10/03 00:12:45;;;;;;;4.77;4.33;;;14.00;99.90;;;;;;4880258;29;20467;-69
2021/10/03 00:15:16;;;;;;;5.50;5.00;;;13.90;99.90;;;;;;4881149;29;20499;-70
2021/10/03 00:17:42;;;;;;;5.80;5.20;;;13.90;99.90;;;;;;4881096;29;20901;-69
2021/10/03 00:20:11;;;;;;;5.00;4.50;;;13.80;99.90;;;;;;4880744;29;20978;-70
2021/10/03 00:22:38;;;;;;;4.80;4.40;;;13.70;99.90;;;;;;4880879;29;20468;-69
2021/10/03 00:25:06;;;;;;;5.73;4.90;;;13.70;99.90;;;;;;4880802;29;20522;-70
2021/10/03 00:27:33;;;;;;;4.90;4.50;;;13.70;99.90;;;;;;4881021;29;20498;-70
2021/10/03 00:30:01;;;;;;;5.30;4.43;;;13.70;99.90;;;;;;4880224;29;20977;-70
2021/10/03 00:32:27;;;;;;;6.83;4.70;;;13.70;99.90;;;;;;4882209;29;20473;-69
2021/10/03 00:34:54;;;;;;;4.67;4.27;;;13.70;99.90;;;;;;4881724;29;20499;-69
2021/10/03 00:37:21;;;;;;;4.77;4.27;;;13.70;99.90;;;;;;4882084;29;20456;-69
2021/10/03 00:39:47;;;;;;;4.60;4.20;;;13.70;99.90;;;;;;4882081;29;20550;-69
2021/10/03 00:42:14;;;;;;;4.60;4.00;;;13.70;99.90;;;;;;4882476;29;20478;-70
2021/10/03 00:44:41;;;;;;;4.50;4.10;;;13.60;99.90;;;;;;4882380;29;20495;-70
2021/10/03 00:47:09;;;;;;;4.17;3.70;;;13.60;99.90;;;;;;4882670;29;20842;-69
2021/10/03 00:49:36;;;;;;;5.53;5.00;;;13.60;99.90;;;;;;4882516;29;20494;-70
2021/10/03 00:52:04;;;;;;;4.30;3.90;;;13.50;99.90;;;;;;4882466;29;20878;-70
2021/10/03 00:54:31;;;;;;;4.77;4.10;;;13.50;99.90;;;;;;4882894;29;20498;-70
2021/10/03 00:56:58;;;;;;;5.63;4.60;;;13.50;99.90;;;;;;4882394;29;20471;-70
2021/10/03 00:59:25;;;;;;;4.00;3.70;;;13.50;99.90;;;;;;4882563;29;20947;-70
2021/10/03 01:01:52;;;;;;;5.17;4.53;;;13.40;99.90;;;;;;4881850;29;20478;-70
2021/10/03 01:04:20;;;;;;;5.03;4.53;;;13.40;99.90;;;;;;4882134;29;20558;-70
2021/10/03 01:06:47;;;;;;;5.10;4.60;;;13.40;99.90;;;;;;4881840;29;20905;-70
2021/10/03 01:09:14;;;;;;;6.03;4.30;;;13.40;99.90;;;;;;4945686;23;20532;-74
2021/10/03 01:11:42;;;;;;;5.20;4.60;;;13.40;99.90;;;;;;4898409;29;20462;-72
2021/10/03 01:14:08;;;;;;;5.40;4.93;;;13.40;99.90;;;;;;4892331;29;20895;-72
2021/10/03 01:16:35;;;;;;;6.33;4.90;;;13.40;99.90;;;;;;4879900;29;20466;-72
2021/10/03 01:19:02;;;;;;;4.50;4.10;;;13.40;99.90;;;;;;4879600;29;20838;-71
2021/10/03 01:21:30;;;;;;;9.70;4.67;;;13.40;99.90;;;;;;4879601;29;20471;-72
2021/10/03 01:23:58;;;;;;;4.57;4.03;;;13.40;99.90;;;;;;4879227;29;20510;-72
2021/10/03 01:26:25;;;;;;;4.27;3.90;;;13.50;99.90;;;;;;4879474;29;20502;-71
2021/10/03 01:28:54;;;;;;;4.87;4.37;;;13.50;99.90;;;;;;4879417;29;20471;-72
2021/10/03 01:31:21;;;;;;;4.63;4.23;;;13.50;99.90;;;;;;4879201;29;20510;-72
2021/10/03 01:33:48;;;;;;;4.70;4.23;;;13.60;99.90;;;;;;4879357;29;20864;-72
2021/10/03 01:36:15;;;;;;;6.47;4.60;;;13.60;99.90;;;;;;4879475;29;20471;-72
2021/10/03 01:38:43;;;;;;;4.43;3.73;;;13.60;99.90;;;;;;4879468;29;20468;-71
2021/10/03 01:41:09;;;;;;;4.10;3.70;;;13.60;99.90;;;;;;4878741;29;20894;-70
2021/10/03 01:43:36;;;;;;;4.20;3.80;;;13.60;99.90;;;;;;4879286;29;20475;-72
2021/10/03 01:46:04;;;;;;;4.70;4.30;;;13.70;99.90;;;;;;4879030;29;20468;-72
2021/10/03 01:48:30;;;;;;;5.30;4.80;;;13.70;99.90;;;;;;4879304;29;20468;-72
2021/10/03 01:51:00;;;;;;;4.60;4.20;;;13.70;99.90;;;;;;4878537;29;20467;-72
2021/10/03 01:53:28;;;;;;;4.57;4.17;;;13.70;99.90;;;;;;4879035;29;20959;-72
2021/10/03 01:55:58;;;;;;;5.03;4.50;;;13.80;99.90;;;;;;4878833;29;20494;-72
2021/10/03 01:58:27;;;;;;;4.60;3.87;;;13.80;99.90;;;;;;4879283;29;20847;-72
2021/10/03 02:00:57;;;;;;;4.93;4.50;;;13.80;99.90;;;;;;4878321;29;20471;-72
2021/10/03 02:03:24;;;;;;;4.60;4.23;;;13.90;99.90;;;;;;4878842;29;20478;-71
2021/10/03 02:05:51;;;;;;;4.30;3.83;;;13.90;99.90;;;;;;4878841;29;20870;-72
2021/10/03 02:08:18;;;;;;;5.60;4.40;;;14.00;99.90;;;;;;4878897;29;20488;-71
2021/10/03 02:10:48;;;;;;;4.33;3.93;;;14.00;99.90;;;;;;4878458;29;20479;-72
2021/10/03 02:13:18;;;;;;;5.10;4.60;;;14.00;99.90;;;;;;4878944;29;20479;-72
2021/10/03 02:15:47;;;;;;;7.80;4.67;;;14.00;99.90;;;;;;4879118;29;20496;-72
2021/10/03 02:18:15;;;;;;;4.67;4.27;;;14.00;99.90;;;;;;4878704;29;21284;-72
2021/10/03 02:20:44;;;;;;;7.00;4.87;;;14.00;99.90;;;;;;4878202;29;21006;-72
2021/10/03 02:23:13;;;;;;;4.47;4.00;;;13.90;99.90;;;;;;4878448;29;20870;-72
2021/10/03 02:25:43;;;;;;;4.97;4.53;;;13.90;99.90;;;;;;4878492;29;20491;-72
2021/10/03 02:28:11;;;;;;;4.20;3.80;;;13.90;99.90;;;;;;4878405;29;20492;-72
2021/10/03 02:30:39;;;;;;;4.93;4.50;;;13.90;99.90;;;;;;4878132;29;20479;-72
2021/10/03 02:33:06;;;;;;;5.00;4.50;;;13.90;99.90;;;;;;4878269;29;20482;-72
2021/10/03 02:35:33;;;;;;;5.10;4.60;;;13.90;99.90;;;;;;4877901;29;20487;-72
2021/10/03 02:38:00;;;;;;;4.87;4.37;;;13.80;99.90;;;;;;4878090;29;20467;-71
2021/10/03 02:40:27;;;;;;;4.37;3.97;;;13.80;99.90;;;;;;4878153;29;20468;-72
2021/10/03 02:42:53;;;;;;;4.60;4.20;;;13.80;99.90;;;;;;4878116;29;20468;-72
2021/10/03 02:45:20;;;;;;;4.90;4.10;;;13.80;99.90;;;;;;4878263;29;20492;-70
2021/10/03 02:47:48;;;;;;;4.63;4.23;;;13.80;99.90;;;;;;4878136;29;21015;-72
2021/10/03 02:50:15;;;;;;;5.00;4.10;;;13.80;99.90;;;;;;4877538;29;20467;-72
2021/10/03 02:52:42;;;;;;;4.43;4.03;;;13.80;99.90;;;;;;4878116;29;20474;-72
2021/10/03 02:55:09;;;;;;;5.00;4.27;;;13.70;99.90;;;;;;4877845;29;20506;-72
2021/10/03 02:57:36;;;;;;;4.57;4.07;;;13.70;99.90;;;;;;4878215;29;20467;-72
2021/10/03 03:00:07;;;;;;;3.83;3.53;;;13.60;99.90;;;;;;4877437;29;20471;-73
2021/10/03 03:02:34;;;;;;;5.00;4.23;;;13.60;99.90;;;;;;4877955;29;20467;-72
2021/10/03 03:05:02;;;;;;;5.10;4.10;;;13.60;99.90;;;;;;4877693;29;20495;-72
2021/10/03 03:07:29;;;;;;;5.17;4.67;;;13.60;99.90;;;;;;4877793;29;20498;-72
2021/10/03 03:09:55;;;;;;;5.80;4.30;;;13.50;99.90;;;;;;4877097;29;20479;-72
2021/10/03 03:12:22;;;;;;;4.70;4.20;;;13.50;99.90;;;;;;4877979;29;20468;-70
2021/10/03 03:14:49;;;;;;;4.33;3.93;;;13.40;99.90;;;;;;4877603;29;20498;-72
2021/10/03 03:17:18;;;;;;;6.10;3.97;;;13.40;99.90;;;;;;4877819;29;20538;-72
2021/10/03 03:19:45;;;;;;;4.40;3.90;;;13.30;99.90;;;;;;4877635;29;20471;-71
2021/10/03 03:22:14;;;;;;;5.30;4.07;;;13.30;99.90;;;;;;4877494;29;20472;-72
2021/10/03 03:24:41;;;;;;;5.43;4.60;;;13.30;99.90;;;;;;4877555;29;20498;-72
2021/10/03 03:27:09;;;;;;;5.07;4.53;;;13.30;99.90;;;;;;4877386;29;20495;-72
2021/10/03 03:29:36;;;;;;;4.03;3.63;;;13.30;99.90;;;;;;4877336;29;20468;-72
2021/10/03 03:32:04;;;;;;;5.93;4.00;;;13.30;99.90;;;;;;4877115;29;20475;-73
2021/10/03 03:34:31;;;;;;;4.67;4.27;;;13.30;99.90;;;;;;4877432;29;20487;-72
2021/10/03 03:36:58;;;;;;;6.57;4.23;;;13.20;99.90;;;;;;4877154;29;20459;-71
2021/10/03 03:39:26;;;;;;;4.57;4.17;;;13.20;99.90;;;;;;4877511;29;20822;-72
2021/10/03 03:41:53;;;;;;;5.33;4.83;;;13.20;99.90;;;;;;4876948;29;20467;-72
2021/10/03 03:44:20;;;;;;;4.60;4.20;;;13.20;99.90;;;;;;4877319;29;20514;-72
2021/10/03 03:46:46;;;;;;;4.57;4.00;;;13.20;99.90;;;;;;4876451;29;20472;-71
2021/10/03 03:49:13;;;;;;;6.07;4.60;;;13.10;99.90;;;;;;4877095;29;20472;-72
2021/10/03 03:51:40;;;;;;;5.23;4.20;;;13.10;99.90;;;;;;4876837;29;20471;-72
2021/10/03 03:54:07;;;;;;;4.67;4.23;;;13.10;99.90;;;;;;4876921;29;20495;-72
2021/10/03 03:56:35;;;;;;;4.57;4.17;;;13.10;99.90;;;;;;4877241;29;20568;-72
2021/10/03 03:59:02;;;;;;;5.10;4.30;;;13.10;99.90;;;;;;4877184;29;20471;-72
2021/10/03 04:01:28;;;;;;;4.33;3.93;;;13.10;99.90;;;;;;4876803;29;20471;-72
2021/10/03 04:03:55;;;;;;;4.10;3.70;;;13.10;99.90;;;;;;4876860;29;20495;-72
2021/10/03 04:06:22;;;;;;;4.67;4.20;;;13.00;99.90;;;;;;4877182;29;20488;-70
2021/10/03 04:08:51;;;;;;;4.40;4.00;;;13.00;99.90;;;;;;4877032;29;20495;-72
2021/10/03 04:11:18;;;;;;;4.33;3.80;;;12.90;99.90;;;;;;4876524;29;20566;-72
2021/10/03 04:13:46;;;;;;;4.57;4.10;;;12.90;99.90;;;;;;4876959;29;20847;-72
2021/10/03 04:16:12;;;;;;;5.10;4.17;;;12.90;99.90;;;;;;4876915;29;20499;-72
2021/10/03 04:18:39;;;;;;;6.33;3.80;;;12.90;99.90;;;;;;4876968;29;20982;-72
2021/10/03 04:21:06;;;;;;;5.37;4.03;;;12.90;99.90;;;;;;4876455;29;20475;-72
2021/10/03 04:23:32;;;;;;;4.40;3.80;;;12.90;99.90;;;;;;4876975;29;20828;-72
2021/10/03 04:25:59;;;;;;;5.17;4.40;;;12.90;99.90;;;;;;4876743;29;20478;-72
2021/10/03 04:28:26;;;;;;;3.83;3.50;;;12.90;99.90;;;;;;4876855;29;20495;-72
2021/10/03 04:30:54;;;;;;;3.80;3.50;;;12.90;99.90;;;;;;4876268;29;20510;-72
2021/10/03 04:33:22;;;;;;;4.77;4.27;;;12.90;99.90;;;;;;4877125;29;20475;-72
2021/10/03 04:35:48;;;;;;;4.63;4.13;;;12.90;99.90;;;;;;4876668;29;20471;-71
2021/10/03 04:38:15;;;;;;;4.43;4.03;;;12.80;99.90;;;;;;4876741;29;20460;-72
2021/10/03 04:40:42;;;;;;;4.70;4.17;;;12.90;99.90;;;;;;4876395;29;20468;-72
2021/10/03 04:43:09;;;;;;;4.97;4.47;;;12.80;99.90;;;;;;4876539;29;20473;-71
2021/10/03 04:45:35;;;;;;;4.47;4.07;;;12.90;99.90;;;;;;4876899;29;20487;-72
2021/10/03 04:48:04;;;;;;;4.17;3.77;;;12.90;99.90;;;;;;4876484;29;20491;-72
2021/10/03 04:50:31;;;;;;;4.70;4.10;;;12.90;99.90;;;;;;4876286;29;20478;-72
2021/10/03 04:52:58;;;;;;;4.30;3.90;;;12.90;99.90;;;;;;4876506;29;20979;-71
2021/10/03 04:55:24;;;;;;;4.67;4.27;;;12.90;99.90;;;;;;4876669;29;20966;-72
2021/10/03 04:57:51;;;;;;;4.00;3.70;;;12.90;99.90;;;;;;4878290;29;20469;-72
2021/10/03 05:00:18;;;;;;;4.30;3.90;;;12.90;99.90;;;;;;4879763;29;20472;-71
2021/10/03 05:02:44;;;;;;;4.57;4.10;;;12.90;99.90;;;;;;4880254;29;20990;-73
2021/10/03 05:05:13;;;;;;;5.00;4.53;;;12.90;99.90;;;;;;4879929;29;20495;-72
2021/10/03 05:07:40;;;;;;;4.87;4.10;;;13.00;99.90;;;;;;4879972;29;20617;-72
2021/10/03 05:10:08;;;;;;;4.43;4.03;;;13.00;99.90;;;;;;4879193;29;20797;-71
2021/10/03 05:12:34;;;;;;;4.13;3.73;;;13.00;99.90;;;;;;4880001;29;20463;-71
2021/10/03 05:15:01;;;;;;;4.63;3.80;;;13.00;99.90;;;;;;4879615;29;20510;-71
2021/10/03 05:17:28;;;;;;;3.73;3.43;;;13.00;99.90;;;;;;4879949;29;20479;-72
2021/10/03 05:19:55;;;;;;;4.03;3.60;;;13.10;99.90;;;;;;4879350;29;20467;-71
2021/10/03 05:22:24;;;;;;;4.37;3.90;;;13.00;99.90;;;;;;4879566;29;20471;-72
2021/10/03 05:24:51;;;;;;;3.67;3.37;;;13.10;99.90;;;;;;4879559;29;20487;-72
2021/10/03 05:27:18;;;;;;;3.50;3.20;;;13.10;99.90;;;;;;4879581;29;20471;-72
2021/10/03 05:29:44;;;;;;;4.10;3.70;;;13.10;99.90;;;;;;4879418;29;20471;-71
2021/10/03 05:32:11;;;;;;;3.77;3.47;;;13.10;99.90;;;;;;4879668;29;20464;-72
2021/10/03 05:34:38;;;;;;;4.10;3.30;;;13.10;99.90;;;;;;4879456;29;20487;-72
2021/10/03 05:37:05;;;;;;;7.10;4.17;;;13.10;99.90;;;;;;4879347;29;20467;-70
2021/10/03 05:39:33;;;;;;;3.53;3.23;;;13.10;99.90;;;;;;4879423;29;20463;-72
2021/10/03 05:42:00;;;;;;;3.50;3.20;;;13.10;99.90;;;;;;4879027;29;20478;-71
2021/10/03 05:44:26;;;;;;;3.90;3.43;;;13.20;99.90;;;;;;4879249;29;20567;-72
2021/10/03 05:46:53;;;;;;;3.60;3.30;;;13.20;99.90;;;;;;4879224;29;20475;-70
2021/10/03 05:49:20;;;;;;;3.60;3.27;;;13.20;99.90;;;;;;4879075;29;20499;-72
2021/10/03 05:51:46;;;;;;;4.23;3.83;;;13.20;99.90;;;;;;4878839;29;20836;-72
2021/10/03 05:54:13;;;;;;;3.43;3.13;;;13.30;99.90;;;;;;4879000;29;20579;-72
2021/10/03 05:56:41;;;;;;;3.67;3.30;;;13.30;99.90;;;;;;4879249;29;20475;-72
2021/10/03 05:59:12;;;;;;;4.00;3.60;;;13.40;99.90;;;;;;4878920;29;20523;-72
2021/10/03 06:01:39;;;;;;;3.90;3.50;;;13.40;99.90;;;;;;4878705;29;20570;-70
2021/10/03 06:04:06;;;;;;;5.53;4.37;;;13.40;99.90;;;;;;4878641;29;20495;-72
2021/10/03 06:06:32;;;;;;;5.37;4.00;;;13.40;99.90;;;;;;4879316;29;20472;-72
2021/10/03 06:08:59;;;;;;;3.70;3.40;;;13.40;99.90;;;;;;4877184;29;20498;-72
2021/10/03 06:11:26;;;;;;;3.10;2.80;;;13.40;99.90;;;;;;4878412;29;20885;-72
2021/10/03 06:13:54;;;;;;;3.57;3.27;;;13.40;99.90;;;;;;4878937;29;20495;-72
2021/10/03 06:16:21;;;;;;;3.87;3.47;;;13.50;99.90;;;;;;4878856;29;20474;-72
2021/10/03 06:18:47;;;;;;;3.43;3.13;;;13.50;99.90;;;;;;4878818;29;20470;-71
2021/10/03 06:21:15;;;;;;;3.60;3.30;;;13.60;99.90;;;;;;4878256;29;20474;-71
2021/10/03 06:23:43;;;;;;;3.83;3.40;;;13.60;99.90;;;;;;4878566;29;20729;-74
2021/10/03 06:26:11;;;;;;;5.70;3.43;;;13.60;99.90;;;;;;4878648;29;20952;-72
2021/10/03 06:28:38;;;;;;;4.00;3.60;;;13.70;99.90;;;;;;4878541;29;20487;-72
2021/10/03 06:31:07;;;;;;;3.37;3.07;;;13.70;99.90;;;;;;4878195;29;20475;-72
2021/10/03 06:33:35;;;;;;;4.27;3.87;;;13.80;99.90;;;;;;4878419;29;20471;-72
2021/10/03 06:36:01;;;;;;;4.13;3.73;;;13.90;99.90;;;;;;4878715;29;20467;-73
2021/10/03 06:38:28;;;;;;;4.20;3.50;;;13.90;99.90;;;;;;4878472;29;20471;-72
2021/10/03 06:40:55;;;;;;;3.70;3.40;;;14.00;99.90;;;;;;4878034;29;20837;-72
2021/10/03 06:43:21;;;;;;;4.47;3.63;;;14.10;99.90;;;;;;4878115;29;20471;-72
2021/10/03 06:45:48;;;;;;;3.50;3.20;;;14.20;99.90;;;;;;4878234;29;20476;-71
2021/10/03 06:48:16;;;;;;;3.80;3.50;;;14.30;99.90;;;;;;4877975;29;20504;-71
2021/10/03 06:50:44;;;;;;;3.50;3.20;;;14.40;99.90;;;;;;4877661;29;20471;-72
2021/10/03 06:53:10;;;;;;;4.70;4.10;;;14.50;99.90;;;;;;4878063;29;20475;-72
2021/10/03 06:55:37;;;;;;;4.00;3.40;;;14.60;99.90;;;;;;4877902;29;20502;-72
2021/10/03 06:58:04;;;;;;;4.53;3.40;;;14.70;99.90;;;;;;4878192;29;20471;-72
2021/10/03 07:00:31;;;;;;;3.40;3.10;;;14.80;99.90;;;;;;4877256;29;20503;-72
2021/10/03 07:02:58;;;;;;;3.33;2.97;;;14.80;99.90;;;;;;4877990;29;20464;-72
2021/10/03 07:05:26;;;;;;;4.07;3.47;;;14.90;99.90;;;;;;4877713;29;20495;-72
2021/10/03 07:07:53;;;;;;;3.17;2.80;;;15.00;99.90;;;;;;4877915;29;20467;-73
2021/10/03 07:10:20;;;;;;;3.67;3.37;;;15.10;99.90;;;;;;4937879;23;20503;-72
2021/10/03 07:12:46;;;;;;;3.40;3.10;;;15.10;99.90;;;;;;4889268;29;20466;-72
2021/10/03 07:15:13;;;;;;;3.17;2.87;;;15.10;99.90;;;;;;4896614;29;20486;-73
2021/10/03 07:17:40;;;;;;;3.27;2.97;;;15.20;99.90;;;;;;4896563;29;20498;-73
2021/10/03 07:20:10;;;;;;;2.97;2.67;;;15.20;99.90;;;;;;4896103;29;20469;-73
2021/10/03 07:22:39;;;;;;;3.07;2.87;;;15.20;99.90;;;;;;4896428;29;20857;-73
2021/10/03 07:25:06;;;;;;;3.53;3.23;;;15.20;99.90;;;;;;4896313;29;20490;-74
2021/10/03 07:27:33;;;;;;;3.43;2.37;;;15.30;99.90;;;;;;4896333;29;20529;-74
2021/10/03 07:30:00;;;;;;;3.40;3.10;;;15.30;99.90;;;;;;4895947;29;20492;-74
2021/10/03 07:32:27;;;;;;;3.00;2.70;;;15.40;99.90;;;;;;4895716;29;20471;-74
2021/10/03 07:34:54;;;;;;;3.77;3.23;;;15.40;99.90;;;;;;4896832;29;20486;-74
2021/10/03 07:37:20;;;;;;;2.90;2.70;;;15.50;99.90;;;;;;4896224;29;20466;-74
2021/10/03 07:39:49;;;;;;;2.80;2.53;;;15.50;99.90;;;;;;4896402;29;20471;-74
2021/10/03 07:42:16;;;;;;;3.13;2.83;;;15.60;99.90;;;;;;4895986;29;20462;-74
2021/10/03 07:44:43;;;;;;;2.90;2.60;;;15.70;99.90;;;;;;4896401;29;20891;-74
2021/10/03 07:47:09;;;;;;;5.10;2.50;;;15.80;99.90;;;;;;4895940;29;20477;-74
2021/10/03 07:49:36;;;;;;;2.60;2.40;;;15.90;99.90;;;;;;4896085;29;20506;-74
2021/10/03 07:52:03;;;;;;;3.20;2.80;;;16.00;99.90;;;;;;4895785;29;20497;-74
2021/10/03 07:54:30;;;;;;;5.10;2.97;;;16.10;99.90;;;;;;4895810;29;20534;-74
2021/10/03 07:56:58;;;;;;;2.70;2.50;;;16.20;99.90;;;;;;4896134;29;20472;-74
2021/10/03 07:59:25;;;;;;;2.70;2.33;;;16.30;99.90;;;;;;4895934;29;20851;-74
2021/10/03 08:01:51;;;;;;;3.20;2.50;;;16.40;99.90;;;;;;4895465;29;20493;-74
2021/10/03 08:04:18;;;;;;;2.97;2.73;;;16.40;99.90;;;;;;4895781;29;20497;-74
2021/10/03 08:06:45;;;;;;;3.07;2.77;;;16.50;99.90;;;;;;4896105;29;20471;-74
2021/10/03 08:09:12;;;;;;;2.77;2.57;;;16.60;99.90;;;;;;4895861;29;20517;-74
2021/10/03 08:11:38;;;;;;;4.80;2.90;;;16.70;99.90;;;;;;4895316;29;20485;-74
2021/10/03 08:14:06;;;;;;;3.13;2.83;;;16.80;99.90;;;;;;4895752;29;20490;-74
2021/10/03 08:16:33;;;;;;;3.20;2.90;;;16.80;99.90;;;;;;4895879;29;20977;-74
2021/10/03 08:19:00;;;;;;;3.70;2.70;;;16.90;99.90;;;;;;4895969;29;20463;-74
2021/10/03 08:21:28;;;;;;;3.20;2.90;;;17.00;99.90;;;;;;4895873;29;20471;-74
2021/10/03 08:23:54;;;;;;;3.20;2.90;;;17.00;99.90;;;;;;4896204;29;20486;-74
2021/10/03 08:26:21;;;;;;;2.90;2.53;;;17.10;99.90;;;;;;4896095;29;20959;-74
2021/10/03 08:28:48;;;;;;;2.70;2.50;;;17.10;99.90;;;;;;4896499;29;20494;-74
2021/10/03 08:31:16;;;;;;;3.30;3.00;;;17.20;99.90;;;;;;4895908;29;20477;-74
2021/10/03 08:33:44;;;;;;;3.20;2.90;;;17.30;99.90;;;;;;4898873;29;20497;-74
2021/10/03 08:36:11;;;;;;;2.67;2.40;;;17.40;99.90;;;;;;4899519;29;20466;-74
2021/10/03 08:38:38;;;;;;;5.37;3.23;;;17.50;99.90;;;;;;4899387;29;20470;-74
2021/10/03 08:41:05;;;;;;;3.10;2.80;;;17.60;99.90;;;;;;4898943;29;20467;-74
2021/10/03 08:43:31;;;;;;;2.90;2.60;;;17.60;99.90;;;;;;4899169;29;20490;-74
2021/10/03 08:45:59;;;;;;;2.90;2.70;;;17.60;99.90;;;;;;4899233;29;20498;-74
2021/10/03 08:48:28;;;;;;;2.90;2.70;;;17.60;99.90;;;;;;4899082;29;20521;-74
2021/10/03 08:50:55;;;;;;;4.47;2.93;;;17.60;99.90;;;;;;4898871;29;20514;-74
2021/10/03 08:53:21;;;;;;;3.30;3.00;;;17.70;99.90;;;;;;4899358;29;20474;-74
2021/10/03 08:55:50;;;;;;;2.80;2.60;;;17.70;99.90;;;;;;4899252;29;20462;-74
2021/10/03 08:58:16;;;;;;;3.70;3.33;;;17.70;99.90;;;;;;4898893;29;21026;-74
2021/10/03 09:00:47;;;;;;;3.27;2.80;;;17.70;99.90;;;;;;4898520;29;20473;-74
2021/10/03 09:03:17;;;;;;;2.90;2.70;;;17.70;99.90;;;;;;4898801;29;20827;-74
2021/10/03 09:05:49;;;;;;;2.80;2.60;;;17.70;99.90;;;;;;4898961;29;20486;-74
2021/10/03 09:08:18;;;;;;;2.93;2.43;;;17.60;99.90;;;;;;4898766;29;20955;-74
2021/10/03 09:10:57;;;;;;;3.20;2.80;;;17.60;99.90;;;;;;4898110;29;20499;-74
2021/10/03 09:13:40;;;;;;;3.87;3.33;;;17.60;99.90;;;;;;4898598;29;20471;-74
2021/10/03 09:16:10;;;;;;;2.90;2.57;;;17.60;99.90;;;;;;4898682;29;20489;-73
2021/10/03 09:18:41;;;;;;;3.07;2.77;;;17.60;99.90;;;;;;4898817;29;20477;-74
2021/10/03 09:21:11;;;;;;;2.90;2.60;;;17.60;99.90;;;;;;4898204;29;20477;-74
2021/10/03 09:23:38;;;;;;;3.63;3.27;;;17.60;99.90;;;;;;4898557;29;20467;-74
2021/10/03 09:26:11;;;;;;;3.20;2.90;;;17.70;99.90;;;;;;4898721;29;20467;-74
2021/10/03 09:28:38;;;;;;;3.07;2.83;;;17.70;99.90;;;;;;4898562;29;20466;-74
2021/10/03 09:31:07;;;;;;;4.30;2.83;;;17.70;99.90;;;;;;4898027;29;20470;-74
2021/10/03 09:33:43;;;;;;;3.30;3.00;;;17.70;99.90;;;;;;4898275;29;20471;-74
2021/10/03 09:36:12;;;;;;;3.57;3.27;;;17.70;99.90;;;;;;4898254;29;21098;-74
2021/10/03 09:38:45;;;;;;;3.43;3.13;;;17.80;99.90;;;;;;4898284;29;20955;-74
2021/10/03 09:41:12;;;;;;;3.70;3.40;;;17.80;99.90;;;;;;4897665;29;20475;-74
2021/10/03 09:43:45;;;;;;;3.73;2.90;;;17.80;99.90;;;;;;4896866;29;20467;-74
2021/10/03 09:46:32;;;;;;;3.40;3.10;;;17.90;99.90;;;;;;4898479;29;20954;-74
2021/10/03 09:49:00;;;;;;;3.13;2.80;;;17.90;99.90;;;;;;4898273;29;20871;-74
2021/10/03 09:51:28;;;;;;;3.27;2.97;;;17.90;99.90;;;;;;4897529;29;20467;-74
2021/10/03 09:53:55;;;;;;;3.13;2.93;;;18.00;99.90;;;;;;4897853;29;21002;-74
2021/10/03 09:56:22;;;;;;;3.50;3.20;;;17.90;99.90;;;;;;4897874;29;20493;-74
2021/10/03 09:58:50;;;;;;;3.70;3.40;;;17.90;99.90;;;;;;4897864;29;20494;-74
2021/10/03 10:01:17;;;;;;;3.43;3.13;;;17.90;99.90;;;;;;4897362;29;20467;-74
2021/10/03 10:03:44;;;;;;;3.57;3.27;;;17.90;99.90;;;;;;4897850;29;20494;-74
2021/10/03 10:06:12;;;;;;;3.60;3.30;;;17.90;99.90;;;;;;4897972;29;20467;-74
2021/10/03 10:08:41;;;;;;;3.80;3.50;;;17.90;99.90;;;;;;4897686;29;20561;-74
2021/10/03 10:11:11;;;;;;;3.37;3.07;;;17.90;99.90;;;;;;4897068;29;20490;-74
2021/10/03 10:13:39;;;;;;;3.47;3.23;;;18.00;99.90;;;;;;4897415;29;20470;-74
2021/10/03 10:16:29;;;;;;;3.60;3.30;;;18.00;99.90;;;;;;4897674;29;20467;-74
2021/10/03 10:19:32;;;;;;;3.83;3.50;;;18.10;99.90;;;;;;4897573;29;20829;-74
2021/10/03 10:22:38;;;;;;;3.53;2.93;;;18.10;99.90;;;;;;4897105;29;20552;-74
2021/10/03 10:25:18;;;;;;;3.30;3.00;;;18.20;99.90;;;;;;4897383;29;20889;-74
2021/10/03 10:28:10;;;;;;;3.77;3.47;;;18.30;99.90;;;;;;4897277;29;20473;-74
2021/10/03 10:30:53;;;;;;;4.20;3.80;;;18.40;99.90;;;;;;4896722;29;20494;-74
2021/10/03 10:33:21;;;;;;;3.80;3.50;;;18.50;99.90;;;;;;4897054;29;20473;-74
2021/10/03 10:35:50;;;;;;;3.97;3.57;;;18.50;99.90;;;;;;4896863;29;20970;-74
2021/10/03 10:38:20;;;;;;;4.40;4.00;;;18.60;99.90;;;;;;4897453;29;20533;-74
2021/10/03 10:40:50;;;;;;;4.90;3.57;;;18.60;99.90;;;;;;4896836;29;20471;-74
2021/10/03 10:43:40;;;;;;;3.40;3.10;;;18.60;99.90;;;;;;4897067;29;20947;-74
2021/10/03 10:46:07;;;;;;;3.57;3.27;;;18.60;99.90;;;;;;4891960;29;20467;-74
2021/10/03 10:48:33;;;;;;;4.23;3.83;;;18.70;99.90;;;;;;4897004;29;20466;-74
2021/10/03 10:51:18;;;;;;;3.43;3.13;;;18.70;99.90;;;;;;4896706;29;20491;-74
2021/10/03 10:53:45;;;;;;;3.63;3.30;;;18.80;99.90;;;;;;4896857;29;20554;-74
2021/10/03 10:56:16;;;;;;;3.60;3.20;;;18.80;99.90;;;;;;4896641;29;20466;-74
2021/10/03 10:59:04;;;;;;;4.90;3.23;;;18.80;99.90;;;;;;4896729;29;20854;-74
2021/10/03 11:01:40;;;;;;;3.30;3.00;;;18.90;99.90;;;;;;4896443;29;20491;-74
2021/10/03 11:04:22;;;;;;;4.77;3.40;;;18.90;99.90;;;;;;4896950;29;20492;-74
2021/10/03 11:06:57;;;;;;;3.80;3.10;;;18.90;99.90;;;;;;4897043;29;20811;-74
2021/10/03 11:09:25;;;;;;;3.50;3.17;;;19.00;99.90;;;;;;4896492;29;20501;-74
2021/10/03 11:12:10;;;;;;;3.73;3.10;;;18.90;99.90;;;;;;4896163;29;20476;-74
2021/10/03 11:14:41;;;;;;;4.83;4.33;;;18.90;99.90;;;;;;4896691;29;20871;-74
2021/10/03 11:17:10;;;;;;;4.03;3.70;;;18.90;99.90;;;;;;4896767;29;20462;-74
2021/10/03 11:19:42;;;;;;;3.73;3.43;;;19.00;99.90;;;;;;4896363;29;20462;-74
2021/10/03 11:22:12;;;;;;;3.10;2.80;;;19.00;99.90;;;;;;4896178;29;20966;-74
2021/10/03 11:24:40;;;;;;;3.70;3.30;;;18.90;99.90;;;;;;4896135;29;21022;-74
2021/10/03 11:27:10;;;;;;;3.40;3.10;;;18.90;99.90;;;;;;4896506;29;20478;-74
2021/10/03 11:29:39;;;;;;;2.97;2.67;;;19.00;99.90;;;;;;4896511;29;20497;-74
2021/10/03 11:32:08;;;;;;;4.93;3.17;;;19.00;99.90;;;;;;4896104;29;20463;-74
2021/10/03 11:34:37;;;;;;;3.40;3.10;;;19.00;99.90;;;;;;4896022;29;20491;-74
2021/10/03 11:37:06;;;;;;;3.47;3.17;;;19.10;99.90;;;;;;4896676;29;20470;-74
2021/10/03 11:39:38;;;;;;;3.70;3.00;;;19.10;99.90;;;;;;4895999;29;20458;-74
2021/10/03 11:42:08;;;;;;;3.10;2.80;;;19.10;99.90;;;;;;4895663;29;20470;-74
2021/10/03 11:44:38;;;;;;;3.03;2.73;;;19.10;99.90;;;;;;4895839;29;20557;-74
2021/10/03 11:47:06;;;;;;;3.77;2.83;;;19.20;99.90;;;;;;4896338;29;20841;-74
2021/10/03 11:49:35;;;;;;;2.97;2.67;;;19.20;99.90;;;;;;4895806;29;20494;-74
2021/10/03 11:52:04;;;;;;;3.23;2.87;;;19.20;99.90;;;;;;4895531;29;20514;-73
2021/10/03 11:54:36;;;;;;;3.83;3.00;;;19.20;99.90;;;;;;4895860;29;20498;-75
2021/10/03 11:57:18;;;;;;;3.70;3.13;;;19.20;99.90;;;;;;4895913;29;20470;-74
2021/10/03 11:59:47;;;;;;;3.20;2.83;;;19.20;99.90;;;;;;4895773;29;20466;-73
2021/10/03 12:02:15;;;;;;;3.10;2.80;;;19.30;99.90;;;;;;4895529;29;20474;-75
2021/10/03 12:05:00;;;;;;;3.60;2.97;;;19.40;99.90;;;;;;4895600;29;20486;-74
2021/10/03 12:07:27;;;;;;;3.30;3.00;;;19.50;99.90;;;;;;4894969;29;20989;-74
2021/10/03 12:09:56;;;;;;;3.57;3.27;;;19.70;99.90;;;;;;4894332;29;20490;-74
2021/10/03 12:12:58;;;;;;;2.97;2.77;;;19.80;99.90;;;;;;4895524;29;20450;-73
2021/10/03 12:15:54;;;;;;;3.30;2.97;;;19.80;99.90;;;;;;4889577;29;20557;-73
2021/10/03 12:18:44;;;;;;;4.60;3.47;;;19.90;99.90;;;;;;4895930;29;20462;-74
2021/10/03 12:21:15;;;;;;;3.33;3.07;;;20.00;99.90;;;;;;4895457;29;20454;-75
2021/10/03 12:23:53;;;;;;;2.93;2.67;;;20.10;99.90;;;;;;4895863;29;20478;-74
2021/10/03 12:26:31;;;;;;;3.37;3.07;;;20.20;99.90;;;;;;4896082;29;20470;-74
2021/10/03 12:29:13;;;;;;;3.57;3.03;;;20.20;99.90;;;;;;4895785;29;20467;-74
2021/10/03 12:31:45;;;;;;;3.40;3.10;;;20.30;99.90;;;;;;4895062;29;21001;-74
2021/10/03 12:34:35;;;;;;;2.87;2.67;;;20.30;99.90;;;;;;4895669;29;20485;-73
2021/10/03 12:37:04;;;;;;;3.27;2.97;;;20.30;99.90;;;;;;4896169;29;20462;-73
2021/10/03 12:39:32;;;;;;;3.00;2.60;;;20.30;99.90;;;;;;4895569;29;20471;-73
2021/10/03 12:42:05;;;;;;;3.70;3.27;;;20.30;99.90;;;;;;4894910;29;20466;-73
2021/10/03 12:44:34;;;;;;;3.17;2.87;;;20.40;99.90;;;;;;4895571;29;20534;-73
2021/10/03 12:47:03;;;;;;;3.30;3.00;;;20.50;99.90;;;;;;4895397;29;20471;-73
2021/10/03 12:49:29;;;;;;;4.57;2.80;;;20.60;99.90;;;;;;4895491;29;20966;-73
2021/10/03 12:51:56;;;;;;;3.93;3.40;;;20.70;99.90;;;;;;4894712;29;20504;-73
2021/10/03 12:54:23;;;;;;;2.90;2.50;;;20.70;99.90;;;;;;4895247;29;20493;-74
2021/10/03 12:56:50;;;;;;;3.70;2.73;;;20.70;99.90;;;;;;4895250;29;20477;-75
2021/10/03 12:59:16;;;;;;;3.70;2.80;;;20.70;99.90;;;;;;4895290;29;21002;-74